Bernadotte, Illinois
Current Conditions -  °F | °C
As of 12:35 AM on Monday 24 Nov 2014 (Local Time) from KMQB Reporting Station
Thunderstorm Thunderstorm  
Wind Chill:   Ceiling: 700
Heat Index:   Visibility: 7mi
Dew Point:   Wind: 20mph
Humidity: 100%   Direction: 310°NW
Pressure: 29.22"   Gusts: 28mph
Location:  40.364°N, 90.2765°W
Report Text: KMQB 240635Z AUTO 31017G24KT 7SM -VCTSRA OVC007 06/06 A2922 RMK AO2 P0002 T00600060
Loading
Personal Weather Stations






























Interactive Weather Map New forecast layout! Learn more

10-Day Weather Forecast

Advertisements
Track Severe Weather on mobile